Time;durP1;ratioP1;P1;durP2;ratioP2;P2;SDS_P1;SDS_P2;PMS_P1;PMS_P2;Temp;Humidity;BMP_temperature;BMP_pressure;BME280_temperature;BME280_humidity;BME280_pressure;Samples;Min_cycle;Max_cycle;Signal;HPM_P1;HPM_P2
2023/11/05 00:00:25;;;;;;;7.23;3.40;;;21.60;95.60;;;;;;5031789;28;20458;-61
2023/11/05 00:02:52;;;;;;;5.80;3.20;;;21.60;95.60;;;;;;5021824;28;20473;-61
2023/11/05 00:05:19;;;;;;;6.67;2.97;;;21.60;95.60;;;;;;5019748;28;20946;-61
2023/11/05 00:07:46;;;;;;;5.03;3.43;;;21.60;95.60;;;;;;5025464;28;20454;-61
2023/11/05 00:10:14;;;;;;;4.97;3.00;;;21.60;95.60;;;;;;5026275;28;20453;-61
2023/11/05 00:12:41;;;;;;;4.43;2.47;;;21.60;95.60;;;;;;5025687;28;21036;-61
2023/11/05 00:15:08;;;;;;;4.93;3.00;;;21.60;95.60;;;;;;5019510;28;20471;-62
2023/11/05 00:17:35;;;;;;;4.07;2.23;;;21.50;95.60;;;;;;5020734;28;20462;-62
2023/11/05 00:20:06;;;;;;;4.97;3.00;;;21.50;95.50;;;;;;5019201;28;20952;-61
2023/11/05 00:22:33;;;;;;;6.97;3.07;;;21.60;95.60;;;;;;5019371;28;20450;-61
2023/11/05 00:25:00;;;;;;;4.70;3.10;;;21.50;95.50;;;;;;5020196;28;20479;-62
2023/11/05 00:27:28;;;;;;;3.20;2.63;;;21.50;95.50;;;;;;5020539;28;20485;-61
2023/11/05 00:29:57;;;;;;;6.40;2.77;;;21.50;95.60;;;;;;5020875;28;20450;-61
2023/11/05 00:32:23;;;;;;;5.60;2.93;;;21.50;95.60;;;;;;5014567;28;20620;-61
2023/11/05 00:34:50;;;;;;;5.20;3.00;;;21.50;95.60;;;;;;5016708;28;20459;-61
2023/11/05 00:37:17;;;;;;;5.27;3.13;;;21.50;95.60;;;;;;5020198;28;21207;-61
2023/11/05 00:39:44;;;;;;;6.50;2.73;;;21.40;95.50;;;;;;5021982;28;20471;-61
2023/11/05 00:42:10;;;;;;;4.33;2.60;;;21.40;95.50;;;;;;5023027;28;20486;-61
2023/11/05 00:44:38;;;;;;;3.20;2.40;;;21.40;95.50;;;;;;5018741;28;20477;-62
2023/11/05 00:47:05;;;;;;;6.10;2.33;;;21.40;95.50;;;;;;5021019;28;20809;-61
2023/11/05 00:49:32;;;;;;;6.80;2.30;;;21.40;95.50;;;;;;5020021;28;20644;-61
2023/11/05 00:51:59;;;;;;;3.90;2.57;;;21.40;95.50;;;;;;5019476;28;20474;-61
2023/11/05 00:54:25;;;;;;;3.83;2.93;;;21.40;95.50;;;;;;5018424;28;20806;-61
2023/11/05 00:56:52;;;;;;;3.30;2.00;;;21.50;95.50;;;;;;5018821;28;21598;-61
2023/11/05 00:59:19;;;;;;;5.10;2.70;;;21.40;95.50;;;;;;5019753;28;20882;-62
2023/11/05 01:01:47;;;;;;;3.97;2.40;;;21.40;95.50;;;;;;5019073;28;20814;-61
2023/11/05 01:04:13;;;;;;;6.68;2.60;;;21.40;95.50;;;;;;5019088;28;20473;-61
2023/11/05 01:06:40;;;;;;;3.27;2.27;;;21.40;95.50;;;;;;5021580;28;20203;-61
2023/11/05 01:09:07;;;;;;;6.20;2.90;;;21.40;95.50;;;;;;5024327;28;20466;-61
2023/11/05 01:11:34;;;;;;;5.93;2.37;;;21.30;95.50;;;;;;5018311;28;20537;-62
2023/11/05 01:14:00;;;;;;;3.50;2.50;;;21.30;95.50;;;;;;5019588;28;20461;-62
2023/11/05 01:16:27;;;;;;;4.97;2.60;;;21.30;95.50;;;;;;5020551;28;20456;-61
2023/11/05 01:18:55;;;;;;;3.57;2.53;;;21.30;95.50;;;;;;5023301;28;21340;-62
2023/11/05 01:21:22;;;;;;;5.93;2.33;;;21.30;95.50;;;;;;5020021;28;20458;-62
2023/11/05 01:23:49;;;;;;;3.40;2.00;;;21.30;95.50;;;;;;5021903;28;20481;-61
2023/11/05 01:26:16;;;;;;;3.47;2.77;;;21.30;95.60;;;;;;5020292;28;20699;-61
2023/11/05 01:28:43;;;;;;;2.53;1.97;;;21.30;95.50;;;;;;5017856;28;20469;-62
2023/11/05 01:31:10;;;;;;;2.83;2.00;;;21.30;95.50;;;;;;5017056;28;21025;-61
2023/11/05 01:33:36;;;;;;;4.80;2.50;;;21.30;95.60;;;;;;5019501;28;20468;-62
2023/11/05 01:36:06;;;;;;;2.60;1.87;;;21.20;95.50;;;;;;5019956;28;20484;-62
2023/11/05 01:38:32;;;;;;;4.43;2.00;;;21.20;95.50;;;;;;5020833;28;20555;-62
2023/11/05 01:40:59;;;;;;;3.90;2.30;;;21.20;95.50;;;;;;5021938;28;20461;-62
2023/11/05 01:43:26;;;;;;;3.10;2.40;;;21.20;95.50;;;;;;5019014;28;20488;-62
2023/11/05 01:45:53;;;;;;;4.80;2.50;;;21.20;95.50;;;;;;5018568;28;20461;-62
2023/11/05 01:48:19;;;;;;;3.50;2.47;;;21.20;95.50;;;;;;5020470;28;20457;-62
2023/11/05 01:50:48;;;;;;;3.10;2.00;;;21.20;95.50;;;;;;5018631;28;20465;-61
2023/11/05 01:53:17;;;;;;;3.20;2.47;;;21.20;95.50;;;;;;5020594;28;20505;-61
2023/11/05 01:55:44;;;;;;;3.87;1.90;;;21.20;95.50;;;;;;5022060;28;20617;-62
2023/11/05 01:58:12;;;;;;;2.70;2.30;;;21.10;95.50;;;;;;5018482;28;20462;-62
2023/11/05 02:00:38;;;;;;;3.67;2.67;;;21.10;95.50;;;;;;5015858;28;20806;-62
2023/11/05 02:03:05;;;;;;;3.40;2.20;;;21.10;95.50;;;;;;5021305;28;20467;-62
2023/11/05 02:05:32;;;;;;;3.03;2.13;;;21.10;95.50;;;;;;5021091;28;20475;-62
2023/11/05 02:08:00;;;;;;;4.70;1.93;;;21.10;95.50;;;;;;5021950;28;20472;-62
2023/11/05 02:10:28;;;;;;;4.43;2.37;;;21.10;95.50;;;;;;5021340;28;20478;-61
2023/11/05 02:12:58;;;;;;;2.73;2.10;;;21.10;95.50;;;;;;5020802;28;20466;-62
2023/11/05 02:15:26;;;;;;;2.90;2.00;;;21.10;95.60;;;;;;5016528;28;20483;-61
2023/11/05 02:17:53;;;;;;;4.93;2.58;;;21.10;95.60;;;;;;5020582;28;20465;-61
2023/11/05 02:20:21;;;;;;;4.37;2.40;;;21.10;95.60;;;;;;5020317;28;20203;-61
2023/11/05 02:22:48;;;;;;;3.50;1.60;;;21.10;95.60;;;;;;5019301;28;20454;-61
2023/11/05 02:25:19;;;;;;;3.88;2.22;;;21.10;95.60;;;;;;5018799;28;20509;-62
2023/11/05 02:27:48;;;;;;;4.18;2.22;;;21.00;95.50;;;;;;5019736;28;20599;-61
2023/11/05 02:30:17;;;;;;;3.17;2.20;;;21.00;95.90;;;;;;5019654;28;20397;-62
2023/11/05 02:32:44;;;;;;;3.97;2.20;;;21.00;95.60;;;;;;5017691;28;20466;-61
2023/11/05 02:35:11;;;;;;;3.30;2.07;;;21.00;95.60;;;;;;5019602;28;20458;-61
2023/11/05 02:37:38;;;;;;;3.60;1.98;;;21.00;95.90;;;;;;5020472;28;20456;-61
2023/11/05 02:40:07;;;;;;;3.30;2.10;;;21.00;95.60;;;;;;5017440;28;20640;-61
2023/11/05 02:42:35;;;;;;;4.33;2.03;;;21.00;95.60;;;;;;5019967;28;20582;-61
2023/11/05 02:45:02;;;;;;;3.90;2.13;;;21.00;95.60;;;;;;5021368;28;20482;-61
2023/11/05 02:47:28;;;;;;;2.72;2.10;;;21.00;95.60;;;;;;5026328;28;20481;-63
2023/11/05 02:49:55;;;;;;;3.77;1.77;;;21.00;95.60;;;;;;5023044;28;20208;-61
2023/11/05 02:52:22;;;;;;;2.42;1.73;;;21.00;95.60;;;;;;5023510;28;20506;-61
2023/11/05 02:54:49;;;;;;;3.13;2.00;;;21.00;95.60;;;;;;5024001;28;20217;-61
2023/11/05 02:57:16;;;;;;;3.60;1.87;;;21.00;95.60;;;;;;5023542;28;20464;-61
2023/11/05 02:59:45;;;;;;;2.57;2.23;;;20.90;95.60;;;;;;5023801;28;20803;-61
2023/11/05 03:02:11;;;;;;;2.78;1.92;;;20.90;95.60;;;;;;5023723;28;20476;-61
2023/11/05 03:04:38;;;;;;;2.05;1.83;;;20.90;95.60;;;;;;5023471;28;20579;-61
2023/11/05 03:07:05;;;;;;;3.50;1.90;;;20.90;95.60;;;;;;5023315;28;21110;-61
2023/11/05 03:09:32;;;;;;;3.53;2.10;;;20.90;95.60;;;;;;5024986;28;20459;-61
2023/11/05 03:11:58;;;;;;;3.13;1.77;;;20.90;95.70;;;;;;5022107;28;20203;-61
2023/11/05 03:14:26;;;;;;;3.53;2.17;;;20.90;95.70;;;;;;5024150;28;20210;-61
2023/11/05 03:16:54;;;;;;;2.80;1.77;;;20.90;95.70;;;;;;5024056;28;20472;-62
2023/11/05 03:19:21;;;;;;;4.20;2.10;;;20.90;95.70;;;;;;5024447;28;20205;-61
2023/11/05 03:21:47;;;;;;;3.17;2.30;;;20.90;95.70;;;;;;5021908;28;20194;-61
2023/11/05 03:24:14;;;;;;;4.80;2.03;;;20.90;95.70;;;;;;5020585;28;20563;-63
2023/11/05 03:26:41;;;;;;;3.03;2.00;;;20.90;95.70;;;;;;5020634;28;21527;-60
2023/11/05 03:29:08;;;;;;;2.55;2.05;;;20.90;95.70;;;;;;5023186;28;20465;-61
2023/11/05 03:31:34;;;;;;;3.70;1.65;;;20.90;95.80;;;;;;5021929;28;20203;-63
2023/11/05 03:34:03;;;;;;;2.80;1.50;;;20.90;95.80;;;;;;5026608;28;20196;-62
2023/11/05 03:36:30;;;;;;;3.38;1.85;;;20.90;95.80;;;;;;5022667;28;20712;-63
2023/11/05 03:38:58;;;;;;;4.43;1.92;;;20.90;96.20;;;;;;5025826;28;20216;-63
2023/11/05 03:41:24;;;;;;;2.65;1.60;;;20.90;95.90;;;;;;5029017;28;20199;-64
2023/11/05 03:43:51;;;;;;;4.53;2.65;;;20.90;95.90;;;;;;5028734;28;20184;-63
2023/11/05 03:46:18;;;;;;;3.95;2.25;;;20.90;95.90;;;;;;5025818;28;20199;-63
2023/11/05 03:48:45;;;;;;;2.20;1.55;;;20.80;95.80;;;;;;5031593;28;20285;-63
2023/11/05 03:51:17;;;;;;;3.63;1.80;;;20.80;95.80;;;;;;5026100;28;20660;-62
2023/11/05 03:53:44;;;;;;;2.08;1.85;;;20.90;95.90;;;;;;5026667;28;20462;-62
2023/11/05 03:56:11;;;;;;;2.60;1.67;;;20.80;95.80;;;;;;5029432;28;20198;-63
2023/11/05 03:58:39;;;;;;;2.42;1.58;;;20.80;95.80;;;;;;5024875;28;20228;-63
2023/11/05 04:01:06;;;;;;;3.10;1.55;;;20.80;95.80;;;;;;5021813;28;20253;-63
2023/11/05 04:03:34;;;;;;;3.57;2.10;;;20.80;95.90;;;;;;5018918;28;20204;-62
2023/11/05 04:06:01;;;;;;;3.00;2.10;;;20.80;95.90;;;;;;5022775;28;20485;-62
2023/11/05 04:08:29;;;;;;;1.95;1.60;;;20.80;95.90;;;;;;5021556;28;20490;-62
2023/11/05 04:10:56;;;;;;;2.55;1.40;;;20.80;95.90;;;;;;5025718;28;20277;-62
2023/11/05 04:13:22;;;;;;;1.80;1.40;;;20.80;95.90;;;;;;5029421;28;20281;-62
2023/11/05 04:15:49;;;;;;;2.37;1.50;;;20.80;95.90;;;;;;5031524;28;20470;-63
2023/11/05 04:18:16;;;;;;;2.60;1.55;;;20.70;95.90;;;;;;5029926;28;20465;-63
2023/11/05 04:20:43;;;;;;;2.83;2.63;;;20.80;95.90;;;;;;5027467;28;20214;-61
2023/11/05 04:23:09;;;;;;;3.53;1.97;;;20.80;95.90;;;;;;5027277;28;20202;-62
2023/11/05 04:25:37;;;;;;;5.03;2.20;;;20.70;95.80;;;;;;5021145;28;20490;-63
2023/11/05 04:28:05;;;;;;;4.07;1.90;;;20.70;95.80;;;;;;5027296;28;20583;-62
2023/11/05 04:30:31;;;;;;;2.85;1.90;;;20.70;95.80;;;;;;5026008;28;20214;-63
2023/11/05 04:32:59;;;;;;;3.00;2.38;;;20.70;95.90;;;;;;5028378;28;20199;-63
2023/11/05 04:35:26;;;;;;;2.45;1.70;;;20.70;95.80;;;;;;5027722;28;20203;-63
2023/11/05 04:37:52;;;;;;;2.58;1.92;;;20.70;95.80;;;;;;5028349;28;20200;-63
2023/11/05 04:40:19;;;;;;;2.30;1.80;;;20.70;95.90;;;;;;5030517;28;20223;-62
2023/11/05 04:42:48;;;;;;;2.75;1.73;;;20.70;95.90;;;;;;5022577;28;20454;-62
2023/11/05 04:45:14;;;;;;;3.03;1.48;;;20.70;95.90;;;;;;5024036;28;20575;-62
2023/11/05 04:47:41;;;;;;;2.13;1.35;;;20.70;95.90;;;;;;5028426;28;20237;-62
2023/11/05 04:50:09;;;;;;;2.85;2.03;;;20.70;95.90;;;;;;5028890;28;20212;-62
2023/11/05 04:52:36;;;;;;;2.03;1.42;;;20.70;95.90;;;;;;5026789;28;20201;-62
2023/11/05 04:55:03;;;;;;;2.53;1.50;;;20.70;95.90;;;;;;5027132;28;20208;-62
2023/11/05 04:57:30;;;;;;;2.43;1.47;;;20.70;95.90;;;;;;5024131;28;20648;-62
2023/11/05 04:59:58;;;;;;;3.25;1.73;;;20.70;95.90;;;;;;5022346;28;20457;-62
2023/11/05 05:02:25;;;;;;;2.07;1.87;;;20.70;95.90;;;;;;5025918;28;20238;-62
2023/11/05 05:04:52;;;;;;;2.20;1.80;;;20.70;95.90;;;;;;5024811;28;20485;-61
2023/11/05 05:07:19;;;;;;;2.50;1.50;;;20.70;95.90;;;;;;5026262;28;20648;-62
2023/11/05 05:09:45;;;;;;;2.60;1.50;;;20.60;95.80;;;;;;5026406;28;20464;-62
2023/11/05 05:12:12;;;;;;;3.70;1.98;;;20.70;95.90;;;;;;5025836;28;20474;-62
2023/11/05 05:14:39;;;;;;;2.85;2.17;;;20.60;95.90;;;;;;5023559;28;20237;-62
2023/11/05 05:17:07;;;;;;;2.97;1.65;;;20.60;95.80;;;;;;5027128;28;20198;-62
2023/11/05 05:19:34;;;;;;;2.50;1.50;;;20.60;95.90;;;;;;5022854;28;20214;-62
2023/11/05 05:22:02;;;;;;;2.70;1.60;;;20.60;95.90;;;;;;5024238;28;20337;-62
2023/11/05 05:24:29;;;;;;;2.20;1.42;;;20.60;95.90;;;;;;5026818;28;20203;-62
2023/11/05 05:26:56;;;;;;;1.70;1.13;;;20.60;95.90;;;;;;5024848;28;20969;-62
2023/11/05 05:29:23;;;;;;;2.90;1.73;;;20.60;95.90;;;;;;5023816;28;20663;-62
2023/11/05 05:31:49;;;;;;;3.63;1.45;;;20.60;95.90;;;;;;5021359;28;20218;-62
2023/11/05 05:34:17;;;;;;;1.73;1.20;;;20.60;95.90;;;;;;5025474;28;20490;-62
2023/11/05 05:36:44;;;;;;;3.33;2.08;;;20.60;95.90;;;;;;5025308;28;20201;-62
2023/11/05 05:39:12;;;;;;;1.77;1.60;;;20.60;95.90;;;;;;5021647;28;20195;-63
2023/11/05 05:41:39;;;;;;;2.65;1.75;;;20.60;95.90;;;;;;5026719;28;20202;-62
2023/11/05 05:44:06;;;;;;;2.83;1.23;;;20.60;95.90;;;;;;5023723;28;20203;-62
2023/11/05 05:46:33;;;;;;;1.73;1.52;;;20.60;95.90;;;;;;5030288;28;20493;-61
2023/11/05 05:48:59;;;;;;;2.28;1.80;;;20.50;95.90;;;;;;5028324;28;20230;-62
2023/11/05 05:51:27;;;;;;;2.30;1.80;;;20.60;95.90;;;;;;5030936;28;20197;-62
2023/11/05 05:53:55;;;;;;;3.38;1.60;;;20.60;96.00;;;;;;5028333;28;20211;-62
2023/11/05 05:56:22;;;;;;;2.15;1.23;;;20.50;95.90;;;;;;5023519;28;23880;-62
2023/11/05 05:58:48;;;;;;;2.92;1.98;;;20.50;95.90;;;;;;5024463;28;20204;-62
2023/11/05 06:01:15;;;;;;;1.80;1.30;;;20.50;95.90;;;;;;5022087;28;20217;-62
2023/11/05 06:03:42;;;;;;;2.80;1.92;;;20.60;95.90;;;;;;5026293;28;21254;-62
2023/11/05 06:06:09;;;;;;;1.77;1.50;;;20.50;95.90;;;;;;5024849;28;20230;-62
2023/11/05 06:08:37;;;;;;;2.35;1.42;;;20.50;95.90;;;;;;5027453;28;20226;-62
2023/11/05 06:11:04;;;;;;;2.72;1.98;;;20.50;95.90;;;;;;5030300;28;20657;-62
2023/11/05 06:13:31;;;;;;;2.42;1.25;;;20.50;95.90;;;;;;5028275;28;20203;-62
2023/11/05 06:15:58;;;;;;;2.22;1.50;;;20.50;95.90;;;;;;5031695;28;20203;-62
2023/11/05 06:18:25;;;;;;;3.10;1.77;;;20.50;95.90;;;;;;5029960;28;20203;-62
2023/11/05 06:20:54;;;;;;;2.30;1.40;;;20.50;95.90;;;;;;5031335;28;20203;-62
2023/11/05 06:23:21;;;;;;;3.45;1.75;;;20.50;96.00;;;;;;5028105;28;20283;-62
2023/11/05 06:25:49;;;;;;;2.67;1.50;;;20.50;95.90;;;;;;5025352;28;20211;-62
2023/11/05 06:28:16;;;;;;;2.17;1.63;;;20.50;96.00;;;;;;5026452;28;20199;-62
2023/11/05 06:30:43;;;;;;;4.82;1.88;;;20.50;96.00;;;;;;5025098;28;20449;-61
2023/11/05 06:33:10;;;;;;;3.25;1.30;;;20.50;96.00;;;;;;5022802;28;20207;-62
2023/11/05 06:35:36;;;;;;;2.63;1.77;;;20.40;95.90;;;;;;5023784;28;20565;-62
2023/11/05 06:38:03;;;;;;;1.40;1.20;;;20.50;96.00;;;;;;5024906;28;20187;-61
2023/11/05 06:40:30;;;;;;;1.95;1.27;;;20.50;96.00;;;;;;5024296;28;20203;-62
2023/11/05 06:42:58;;;;;;;1.80;1.10;;;20.40;96.00;;;;;;5025487;28;20215;-61
2023/11/05 06:45:25;;;;;;;1.73;1.50;;;20.40;96.10;;;;;;5029045;28;20539;-62
2023/11/05 06:47:51;;;;;;;2.55;1.40;;;20.40;95.90;;;;;;5030238;28;20184;-61
2023/11/05 06:50:18;;;;;;;2.03;1.50;;;20.40;95.90;;;;;;5025481;28;21413;-61
2023/11/05 06:52:45;;;;;;;3.47;1.55;;;20.40;96.00;;;;;;5031079;28;20474;-60
2023/11/05 06:55:12;;;;;;;2.65;1.10;;;20.40;96.50;;;;;;5027519;28;20531;-60
2023/11/05 06:57:38;;;;;;;2.40;1.57;;;20.40;96.20;;;;;;5030766;28;20341;-60
2023/11/05 07:00:09;;;;;;;1.48;1.02;;;20.40;96.30;;;;;;5023821;28;20937;-61
2023/11/05 07:02:36;;;;;;;2.05;1.67;;;20.40;96.30;;;;;;5024596;28;20933;-61
2023/11/05 07:05:04;;;;;;;5.50;1.60;;;20.40;96.20;;;;;;5029104;28;20224;-60
2023/11/05 07:07:32;;;;;;;2.67;1.50;;;20.40;96.20;;;;;;5028987;28;20578;-61
2023/11/05 07:09:59;;;;;;;2.67;1.50;;;20.40;96.20;;;;;;5027347;28;20917;-60
2023/11/05 07:12:26;;;;;;;1.50;0.95;;;20.40;96.20;;;;;;5030413;28;20207;-61
2023/11/05 07:14:53;;;;;;;2.35;1.25;;;20.40;96.20;;;;;;5027050;28;20192;-60
2023/11/05 07:17:21;;;;;;;1.30;1.13;;;20.40;96.20;;;;;;5024413;28;20291;-60
2023/11/05 07:19:48;;;;;;;1.90;1.25;;;20.40;96.10;;;;;;5025759;28;20206;-60
2023/11/05 07:22:15;;;;;;;1.60;1.30;;;20.40;96.10;;;;;;5023720;28;20572;-61
2023/11/05 07:24:42;;;;;;;3.67;1.48;;;20.40;96.10;;;;;;5028029;28;20196;-60
2023/11/05 07:27:09;;;;;;;3.08;1.92;;;20.40;96.20;;;;;;5031246;28;20707;-60
2023/11/05 07:29:36;;;;;;;2.58;1.27;;;20.40;96.20;;;;;;5026743;28;20195;-60
2023/11/05 07:32:04;;;;;;;2.40;1.48;;;20.40;96.30;;;;;;5032041;28;20199;-60
2023/11/05 07:34:32;;;;;;;2.15;1.52;;;20.40;96.30;;;;;;5030026;28;20621;-60
2023/11/05 07:36:59;;;;;;;1.60;1.33;;;20.40;96.40;;;;;;5026426;28;20210;-60
2023/11/05 07:39:25;;;;;;;1.83;1.20;;;20.40;96.40;;;;;;5023794;28;20204;-60
2023/11/05 07:41:52;;;;;;;1.20;1.00;;;20.40;96.50;;;;;;5026604;28;20498;-60
2023/11/05 07:44:20;;;;;;;2.05;1.30;;;20.40;96.50;;;;;;5024105;28;20207;-60
2023/11/05 07:46:47;;;;;;;1.50;0.90;;;20.40;96.60;;;;;;5030624;28;20920;-60
2023/11/05 07:49:13;;;;;;;3.08;1.25;;;20.40;96.60;;;;;;5029112;28;20210;-60
2023/11/05 07:51:41;;;;;;;3.28;1.40;;;20.40;96.60;;;;;;5027850;28;20226;-60
2023/11/05 07:54:08;;;;;;;1.42;1.20;;;20.40;96.70;;;;;;5030388;28;20195;-60
2023/11/05 07:56:35;;;;;;;1.70;1.10;;;20.50;96.70;;;;;;5028090;28;20292;-60
2023/11/05 07:59:03;;;;;;;4.38;1.35;;;20.50;96.80;;;;;;5029331;28;20643;-60
2023/11/05 08:01:30;;;;;;;1.40;1.10;;;20.50;96.80;;;;;;5023265;28;20202;-60
2023/11/05 08:03:56;;;;;;;2.10;1.30;;;20.50;96.80;;;;;;5023698;28;20188;-61
2023/11/05 08:06:23;;;;;;;1.58;1.15;;;20.50;96.80;;;;;;5030900;28;20234;-60
2023/11/05 08:08:52;;;;;;;1.67;1.23;;;20.50;96.80;;;;;;5027567;28;20199;-60
2023/11/05 08:11:18;;;;;;;1.67;1.00;;;20.50;96.80;;;;;;5030971;28;20972;-61
2023/11/05 08:13:45;;;;;;;1.43;1.13;;;20.60;96.80;;;;;;5025570;28;20780;-60
2023/11/05 08:16:12;;;;;;;1.55;1.27;;;20.60;96.80;;;;;;5026763;28;20477;-61
2023/11/05 08:18:39;;;;;;;4.07;1.20;;;20.60;96.80;;;;;;5024848;28;20714;-60
2023/11/05 08:21:08;;;;;;;1.90;1.50;;;20.60;96.80;;;;;;5023396;28;20200;-61
2023/11/05 08:23:35;;;;;;;3.40;1.00;;;20.60;96.80;;;;;;5028607;28;20463;-60
2023/11/05 08:26:04;;;;;;;1.55;1.10;;;20.60;96.80;;;;;;5030200;28;20227;-61
2023/11/05 08:28:31;;;;;;;2.27;1.00;;;20.70;96.90;;;;;;5025827;28;20223;-60
2023/11/05 08:30:58;;;;;;;5.20;1.10;;;20.70;96.90;;;;;;5028015;28;20458;-60
2023/11/05 08:33:25;;;;;;;2.63;1.50;;;20.70;96.90;;;;;;5029736;28;20466;-60
2023/11/05 08:35:51;;;;;;;2.90;1.13;;;20.70;96.90;;;;;;5027607;28;20469;-60
2023/11/05 08:38:18;;;;;;;1.30;1.17;;;20.70;96.90;;;;;;5029704;28;20491;-60
2023/11/05 08:40:46;;;;;;;1.70;1.10;;;20.70;96.90;;;;;;5028254;28;20925;-61
2023/11/05 08:43:14;;;;;;;1.75;1.45;;;20.70;97.00;;;;;;5025960;28;20743;-60
2023/11/05 08:45:40;;;;;;;2.33;1.43;;;20.70;97.00;;;;;;5026893;28;20223;-60
2023/11/05 08:48:07;;;;;;;1.27;0.97;;;20.70;96.90;;;;;;5027908;28;20826;-60
2023/11/05 08:50:34;;;;;;;1.43;0.80;;;20.70;96.90;;;;;;5029327;28;21818;-60
2023/11/05 08:53:00;;;;;;;2.70;1.10;;;20.70;96.90;;;;;;5029814;28;20466;-60
2023/11/05 08:55:29;;;;;;;2.70;1.10;;;20.70;96.90;;;;;;5028304;28;20468;-60
2023/11/05 08:57:57;;;;;;;1.60;0.90;;;20.80;97.00;;;;;;5027495;28;20966;-60
2023/11/05 09:00:26;;;;;;;2.55;1.25;;;20.80;96.90;;;;;;5020777;28;20736;-59
2023/11/05 09:02:53;;;;;;;2.30;1.20;;;20.80;97.00;;;;;;5023944;28;20231;-59
2023/11/05 09:05:22;;;;;;;1.52;1.00;;;20.80;97.00;;;;;;5018063;28;20474;-59
2023/11/05 09:07:49;;;;;;;1.48;0.90;;;20.80;97.00;;;;;;5020340;28;20290;-60
2023/11/05 09:10:16;;;;;;;1.53;1.00;;;20.80;97.00;;;;;;5024092;28;20206;-60
2023/11/05 09:12:43;;;;;;;2.70;1.30;;;20.80;96.90;;;;;;5017540;28;20462;-61
2023/11/05 09:15:10;;;;;;;2.20;1.23;;;20.90;96.80;;;;;;5018699;28;20488;-60
2023/11/05 09:17:39;;;;;;;1.70;1.33;;;20.90;96.90;;;;;;5017615;28;20459;-55
2023/11/05 09:20:08;;;;;;;1.93;1.10;;;20.90;97.00;;;;;;5018300;28;20543;-55
2023/11/05 09:22:36;;;;;;;1.67;1.10;;;20.90;97.00;;;;;;5022448;28;20495;-58
2023/11/05 09:25:04;;;;;;;1.50;0.97;;;20.90;96.90;;;;;;5015821;28;20453;-57
2023/11/05 09:27:31;;;;;;;1.30;1.03;;;20.90;96.90;;;;;;5023508;28;20652;-57
2023/11/05 09:29:58;;;;;;;1.80;1.30;;;21.00;96.90;;;;;;5019753;28;20539;-57
2023/11/05 09:32:24;;;;;;;1.70;1.50;;;21.00;97.00;;;;;;5020200;28;20466;-60
2023/11/05 09:34:52;;;;;;;1.57;0.90;;;21.00;97.10;;;;;;5019624;28;20454;-60
2023/11/05 09:37:19;;;;;;;1.50;0.90;;;21.00;97.10;;;;;;5023917;28;20335;-60
2023/11/05 09:39:45;;;;;;;2.70;1.20;;;21.00;97.00;;;;;;5022118;28;20450;-60
2023/11/05 09:42:16;;;;;;;1.40;1.10;;;21.00;97.00;;;;;;5024625;28;20465;-59
2023/11/05 09:44:43;;;;;;;7.20;0.90;;;21.00;96.90;;;;;;5020960;28;20456;-60
2023/11/05 09:47:12;;;;;;;1.83;1.27;;;21.00;96.90;;;;;;5022883;28;20480;-60
2023/11/05 09:49:40;;;;;;;1.37;1.00;;;21.10;96.90;;;;;;5024489;28;20469;-60
2023/11/05 09:52:11;;;;;;;1.37;1.00;;;21.00;96.90;;;;;;5022515;28;20492;-60
2023/11/05 09:54:40;;;;;;;1.67;0.90;;;21.00;96.80;;;;;;5021004;28;21418;-60
2023/11/05 09:57:07;;;;;;;4.07;1.30;;;21.10;96.80;;;;;;5021496;28;20469;-60
2023/11/05 09:59:34;;;;;;;2.00;1.20;;;21.10;96.80;;;;;;5020512;28;20454;-60
2023/11/05 10:02:00;;;;;;;1.77;1.10;;;21.10;96.80;;;;;;5017752;28;21048;-60
2023/11/05 10:04:27;;;;;;;1.90;0.80;;;21.10;96.80;;;;;;5019937;28;20466;-60
2023/11/05 10:06:54;;;;;;;1.80;0.90;;;21.10;96.80;;;;;;5017330;28;20473;-59
2023/11/05 10:09:24;;;;;;;4.20;1.40;;;21.10;96.80;;;;;;5022167;28;20814;-59
2023/11/05 10:11:51;;;;;;;3.87;1.43;;;21.10;96.80;;;;;;5019157;28;20878;-59
2023/11/05 10:14:18;;;;;;;1.50;0.80;;;21.10;96.80;;;;;;5025613;28;20468;-59
2023/11/05 10:16:45;;;;;;;2.17;1.17;;;21.10;96.80;;;;;;5017167;28;20461;-59
2023/11/05 10:19:13;;;;;;;1.60;1.00;;;21.20;96.80;;;;;;5018775;28;20557;-60
2023/11/05 10:21:40;;;;;;;2.07;1.10;;;21.10;96.70;;;;;;5018115;28;20466;-60
2023/11/05 10:24:08;;;;;;;2.93;1.00;;;21.10;96.70;;;;;;5019353;28;20497;-59
2023/11/05 10:26:36;;;;;;;1.27;0.90;;;21.10;96.70;;;;;;5019443;28;20878;-60
2023/11/05 10:29:04;;;;;;;1.60;1.00;;;21.20;96.70;;;;;;5026215;28;20473;-60
2023/11/05 10:31:32;;;;;;;2.00;1.40;;;21.20;96.70;;;;;;5015925;28;20555;-56
2023/11/05 10:33:59;;;;;;;2.60;0.80;;;21.20;96.70;;;;;;5021872;28;20460;-58
2023/11/05 10:36:27;;;;;;;1.13;0.80;;;21.20;99.90;;;;;;5021261;28;20858;-60
2023/11/05 10:38:54;;;;;;;2.63;1.00;;;21.30;99.90;;;;;;5019577;28;20912;-54
2023/11/05 10:41:21;;;;;;;6.80;1.17;;;21.20;99.90;;;;;;5024579;28;20462;-58
2023/11/05 10:43:50;;;;;;;1.20;0.90;;;21.30;99.90;;;;;;5020003;28;20465;-58
2023/11/05 10:46:17;;;;;;;1.50;0.90;;;21.30;99.90;;;;;;5024765;28;20505;-57
2023/11/05 10:48:45;;;;;;;4.13;1.40;;;21.20;99.90;;;;;;5024322;28;20461;-58
2023/11/05 10:51:14;;;;;;;1.43;0.83;;;21.20;99.90;;;;;;5025136;28;20454;-56
2023/11/05 10:53:42;;;;;;;5.70;1.60;;;21.20;99.90;;;;;;5023910;28;20464;-57
2023/11/05 10:56:29;;;;;;;1.20;0.90;;;21.20;99.90;;;;;;5027095;28;20468;-54
2023/11/05 10:58:57;;;;;;;1.73;1.00;;;21.30;99.90;;;;;;5021801;28;20469;-56
2023/11/05 11:01:27;;;;;;;3.70;1.00;;;21.20;99.90;;;;;;5024962;28;20763;-56
2023/11/05 11:03:58;;;;;;;1.50;0.90;;;21.20;99.90;;;;;;5024509;28;20540;-55
2023/11/05 11:06:26;;;;;;;1.93;1.00;;;21.20;99.90;;;;;;5026455;28;20587;-57
2023/11/05 11:08:59;;;;;;;1.20;0.70;;;21.20;99.90;;;;;;5029149;28;20458;-58
2023/11/05 11:11:26;;;;;;;3.93;1.43;;;21.30;99.90;;;;;;5024348;28;21019;-59
2023/11/05 11:13:56;;;;;;;2.37;1.10;;;21.30;99.90;;;;;;5028307;28;20606;-54
2023/11/05 11:16:36;;;;;;;1.10;0.80;;;21.20;99.90;;;;;;5020246;28;20920;-62
2023/11/05 11:19:09;;;;;;;1.50;1.10;;;21.30;99.90;;;;;;5025977;28;20450;-58
2023/11/05 11:21:50;;;;;;;2.80;0.80;;;21.20;99.90;;;;;;5020958;28;20510;-56
2023/11/05 11:24:33;;;;;;;2.40;0.90;;;21.20;99.90;;;;;;5024045;28;21601;-59
2023/11/05 11:27:03;;;;;;;1.33;1.10;;;21.20;99.90;;;;;;5024086;28;20478;-60
2023/11/05 11:29:31;;;;;;;2.53;0.90;;;21.10;99.90;;;;;;5026199;28;20475;-61
2023/11/05 11:32:00;;;;;;;1.73;1.00;;;21.20;99.90;;;;;;5022519;28;21052;-60
2023/11/05 11:34:27;;;;;;;1.87;0.73;;;21.10;99.40;;;;;;5024276;28;20466;-58
2023/11/05 11:36:58;;;;;;;1.87;1.10;;;21.20;98.80;;;;;;5023608;28;20585;-55
2023/11/05 11:39:26;;;;;;;3.50;1.30;;;21.10;98.50;;;;;;5023686;28;20891;-58
2023/11/05 11:41:53;;;;;;;1.80;0.83;;;21.30;98.40;;;;;;5023677;28;20531;-59
2023/11/05 11:44:20;;;;;;;2.40;0.87;;;21.20;98.30;;;;;;5022436;28;20462;-57
2023/11/05 11:46:47;;;;;;;1.77;0.80;;;21.20;98.20;;;;;;5019185;28;20504;-59
2023/11/05 11:49:15;;;;;;;1.03;0.77;;;21.20;98.20;;;;;;5023167;28;20461;-58
2023/11/05 11:51:42;;;;;;;2.33;1.10;;;21.20;98.40;;;;;;5025195;28;20477;-53
2023/11/05 11:54:09;;;;;;;1.30;0.80;;;21.30;98.40;;;;;;5018026;28;20469;-63
2023/11/05 11:56:36;;;;;;;1.63;0.83;;;21.30;98.60;;;;;;5021212;28;20849;-65
2023/11/05 11:59:04;;;;;;;1.27;0.80;;;21.40;99.90;;;;;;5019566;28;20474;-57
2023/11/05 12:01:31;;;;;;;4.50;0.80;;;21.40;99.50;;;;;;5021888;28;20583;-55
2023/11/05 12:03:59;;;;;;;2.20;0.90;;;21.50;99.20;;;;;;5017021;28;20549;-60
2023/11/05 12:06:28;;;;;;;1.13;0.83;;;21.50;98.50;;;;;;5023419;28;20477;-56
2023/11/05 12:08:55;;;;;;;1.87;0.83;;;21.50;98.30;;;;;;5022042;28;20492;-57
2023/11/05 12:11:29;;;;;;;1.20;0.90;;;21.50;98.00;;;;;;5021968;28;20548;-56
2023/11/05 12:13:56;;;;;;;1.20;0.90;;;21.60;98.20;;;;;;5020906;28;20536;-58
2023/11/05 12:16:22;;;;;;;1.10;0.90;;;21.60;98.30;;;;;;5018933;28;20855;-59
2023/11/05 12:18:49;;;;;;;1.00;0.70;;;21.60;98.10;;;;;;5017847;28;20465;-57
2023/11/05 12:21:16;;;;;;;2.03;0.90;;;21.60;98.00;;;;;;5016630;28;20841;-57
2023/11/05 12:23:45;;;;;;;1.90;1.00;;;21.70;98.00;;;;;;5020483;28;20504;-53
2023/11/05 12:26:16;;;;;;;1.20;0.80;;;21.70;98.20;;;;;;5016446;28;20461;-57
2023/11/05 12:28:43;;;;;;;1.87;1.10;;;21.70;98.00;;;;;;5018690;28;20489;-59
2023/11/05 12:31:10;;;;;;;1.47;0.87;;;21.70;98.00;;;;;;5014282;28;20861;-58
2023/11/05 12:33:37;;;;;;;1.07;0.80;;;21.70;98.00;;;;;;5007581;28;20670;-58
2023/11/05 12:36:06;;;;;;;1.60;0.90;;;21.80;98.00;;;;;;5010978;28;20465;-55
2023/11/05 12:38:33;;;;;;;1.40;0.90;;;21.70;98.00;;;;;;5008169;28;20950;-60
2023/11/05 12:41:01;;;;;;;1.20;0.80;;;21.80;98.10;;;;;;5007438;28;20480;-57
2023/11/05 12:43:28;;;;;;;1.20;0.80;;;21.80;98.10;;;;;;5008905;28;20470;-59
2023/11/05 12:45:56;;;;;;;1.63;1.00;;;21.80;98.20;;;;;;5002490;28;20462;-63
2023/11/05 12:48:23;;;;;;;1.67;0.80;;;21.80;98.30;;;;;;5002841;28;21212;-55